createdAt,value
2023-04-21T00:01:55.306Z,3.70
2023-04-21T00:04:22.509Z,3.60
2023-04-21T00:06:50.701Z,3.60
2023-04-21T00:09:18.753Z,3.60
2023-04-21T00:11:46.026Z,3.60
2023-04-21T00:14:12.942Z,3.60
2023-04-21T00:16:39.900Z,3.50
2023-04-21T00:19:07.591Z,3.50
2023-04-21T00:21:35.635Z,3.50
2023-04-21T00:24:02.769Z,3.40
2023-04-21T00:26:29.595Z,3.40
2023-04-21T00:28:57.116Z,3.30
2023-04-21T00:31:24.087Z,3.30
2023-04-21T00:33:51.125Z,3.30
2023-04-21T00:36:18.011Z,3.20
2023-04-21T00:38:44.925Z,3.20
2023-04-21T00:41:11.791Z,3.20
2023-04-21T00:43:58.582Z,3.20
2023-04-21T00:46:25.679Z,3.10
2023-04-21T00:48:53.593Z,3.10
2023-04-21T00:51:21.337Z,3.10
2023-04-21T00:53:48.621Z,3.10
2023-04-21T00:56:16.191Z,3.00
2023-04-21T00:58:44.320Z,3.00
2023-04-21T01:01:11.310Z,3.00
2023-04-21T01:03:38.365Z,2.90
2023-04-21T01:06:06.202Z,2.90
2023-04-21T01:08:33.719Z,2.80
2023-04-21T01:11:00.636Z,2.80
2023-04-21T01:13:27.518Z,2.80
2023-04-21T01:15:54.352Z,2.80
2023-04-21T01:18:22.145Z,2.80
2023-04-21T01:20:50.044Z,2.70
2023-04-21T01:23:18.815Z,2.70
2023-04-21T01:25:45.775Z,2.70
2023-04-21T01:28:12.910Z,2.70
2023-04-21T01:30:40.059Z,2.60
2023-04-21T01:33:06.930Z,2.60
2023-04-21T01:35:33.830Z,2.60
2023-04-21T01:38:01.418Z,2.60
2023-04-21T01:40:28.312Z,2.50
2023-04-21T01:42:55.709Z,2.50
2023-04-21T01:45:22.661Z,2.40
2023-04-21T01:47:49.556Z,2.50
2023-04-21T01:50:16.615Z,2.40
2023-04-21T01:52:43.448Z,2.40
2023-04-21T01:55:10.632Z,2.40
2023-04-21T01:57:37.477Z,2.40
2023-04-21T02:00:05.642Z,2.30
2023-04-21T02:02:42.075Z,2.30
2023-04-21T02:05:09.197Z,2.30
2023-04-21T02:07:36.172Z,2.30
2023-04-21T02:10:03.095Z,2.30
2023-04-21T02:12:29.990Z,2.20
2023-04-21T02:14:56.835Z,2.20
2023-04-21T02:17:24.000Z,2.10
2023-04-21T02:19:50.868Z,2.20
2023-04-21T02:22:17.891Z,2.10
2023-04-21T02:24:44.797Z,2.10
2023-04-21T02:27:12.394Z,2.10
2023-04-21T02:29:39.305Z,2.10
2023-04-21T02:32:22.371Z,2.10
2023-04-21T02:34:52.794Z,2.10
2023-04-21T02:37:20.047Z,2.00
2023-04-21T02:39:46.932Z,2.00
2023-04-21T02:42:13.790Z,2.00
2023-04-21T02:44:40.594Z,1.90
2023-04-21T02:47:07.461Z,1.90
2023-04-21T02:49:39.698Z,1.80
2023-04-21T02:52:06.631Z,1.80
2023-04-21T02:54:33.560Z,1.80
2023-04-21T02:57:00.422Z,1.80
2023-04-21T02:59:27.431Z,1.80
2023-04-21T03:01:54.314Z,1.70
2023-04-21T03:04:21.330Z,1.70
2023-04-21T03:06:48.432Z,1.70
2023-04-21T03:09:16.060Z,1.70
2023-04-21T03:11:43.096Z,1.70
2023-04-21T03:14:09.872Z,1.70
2023-04-21T03:16:36.670Z,1.70
2023-04-21T03:19:03.499Z,1.70
2023-04-21T03:21:31.411Z,1.60
2023-04-21T03:23:58.187Z,1.60
2023-04-21T03:26:25.703Z,1.60
2023-04-21T03:28:52.486Z,1.60
2023-04-21T03:31:19.289Z,1.60
2023-04-21T03:33:46.170Z,1.60
2023-04-21T03:36:13.514Z,1.60
2023-04-21T03:38:40.567Z,1.50
2023-04-21T03:41:07.410Z,1.60
2023-04-21T03:43:34.329Z,1.50
2023-04-21T03:46:01.188Z,1.60
2023-04-21T03:48:29.419Z,1.60
2023-04-21T03:50:56.258Z,1.60
2023-04-21T03:53:23.145Z,1.60
2023-04-21T03:55:53.024Z,1.60
2023-04-21T03:58:19.894Z,1.60
2023-04-21T04:00:46.707Z,1.60
2023-04-21T04:03:13.769Z,1.70
2023-04-21T04:05:40.867Z,1.70
2023-04-21T04:08:07.779Z,1.80
2023-04-21T04:10:34.594Z,1.80
2023-04-21T04:13:01.440Z,1.80
2023-04-21T04:15:28.373Z,1.90
2023-04-21T04:17:55.714Z,1.90
2023-04-21T04:20:22.863Z,1.90
2023-04-21T04:22:49.737Z,1.90
2023-04-21T04:25:17.071Z,2.00
2023-04-21T04:27:49.468Z,2.00
2023-04-21T04:30:16.989Z,2.00
2023-04-21T04:32:43.847Z,2.10
2023-04-21T04:35:13.052Z,2.10
2023-04-21T04:37:41.215Z,2.20
2023-04-21T04:40:14.370Z,2.30
2023-04-21T04:42:42.199Z,2.30
2023-04-21T04:45:09.448Z,2.50
2023-04-21T04:47:36.247Z,2.60
2023-04-21T04:50:04.112Z,2.80
2023-04-21T04:52:30.933Z,2.90
2023-04-21T04:54:57.889Z,3.00
2023-04-21T04:57:24.719Z,3.20
2023-04-21T04:59:57.376Z,3.40
2023-04-21T05:02:24.671Z,3.50
2023-04-21T05:04:51.899Z,3.70
2023-04-21T05:07:19.036Z,3.80
2023-04-21T05:09:45.950Z,3.90
2023-04-21T05:12:12.750Z,4.10
2023-04-21T05:14:39.554Z,4.30
2023-04-21T05:17:06.457Z,4.40
2023-04-21T05:19:36.356Z,4.60
2023-04-21T05:22:03.350Z,4.80
2023-04-21T05:24:30.260Z,5.00
2023-04-21T05:26:57.113Z,5.20
2023-04-21T05:29:23.898Z,5.50
2023-04-21T05:31:50.718Z,5.60
2023-04-21T05:34:17.624Z,5.80
2023-04-21T05:36:44.680Z,5.90
2023-04-21T05:39:11.443Z,6.10
2023-04-21T05:41:38.226Z,6.30
2023-04-21T05:44:05.156Z,6.40
2023-04-21T05:46:34.769Z,6.50
2023-04-21T05:49:05.006Z,6.50
2023-04-21T05:51:32.232Z,6.50
2023-04-21T05:53:59.196Z,6.60
2023-04-21T05:56:26.052Z,6.70
2023-04-21T05:58:52.872Z,6.80
2023-04-21T06:01:19.760Z,6.90
2023-04-21T06:03:50.135Z,7.00
2023-04-21T06:06:17.760Z,7.00
2023-04-21T06:08:44.628Z,7.10
2023-04-21T06:11:11.474Z,7.10
2023-04-21T06:13:39.170Z,7.10
2023-04-21T06:16:07.237Z,7.20
2023-04-21T06:18:34.077Z,7.20
2023-04-21T06:21:00.937Z,7.30
2023-04-21T06:23:27.740Z,7.30
2023-04-21T06:26:05.552Z,7.40
2023-04-21T06:28:36.413Z,7.40
2023-04-21T06:31:06.070Z,7.40
2023-04-21T06:33:34.945Z,7.50
2023-04-21T06:36:01.873Z,7.50
2023-04-21T06:38:28.815Z,7.60
2023-04-21T06:40:55.977Z,7.60
2023-04-21T06:43:22.829Z,7.70
2023-04-21T06:45:49.674Z,7.80
2023-04-21T06:48:16.786Z,7.80
2023-04-21T06:50:46.622Z,7.80
2023-04-21T06:53:13.554Z,7.80
2023-04-21T06:55:40.434Z,7.80
2023-04-21T06:58:07.472Z,7.90
2023-04-21T07:00:34.286Z,8.00
2023-04-21T07:03:01.247Z,8.00
2023-04-21T07:05:28.709Z,8.00
2023-04-21T07:07:59.736Z,8.00
2023-04-21T07:10:27.763Z,8.00
2023-04-21T07:12:55.342Z,8.00
2023-04-21T07:15:22.503Z,8.10
2023-04-21T07:17:49.392Z,8.20
2023-04-21T07:20:17.564Z,8.10
2023-04-21T07:22:44.596Z,8.20
2023-04-21T07:25:12.505Z,8.30
2023-04-21T07:27:39.715Z,8.30
2023-04-21T07:30:07.674Z,8.30
2023-04-21T07:32:35.160Z,8.30
2023-04-21T07:35:02.818Z,8.20
2023-04-21T07:37:29.677Z,8.20
2023-04-21T07:39:56.576Z,8.20
2023-04-21T07:42:23.520Z,8.30
2023-04-21T07:44:50.356Z,8.30
2023-04-21T07:47:17.272Z,8.30
2023-04-21T07:49:44.179Z,8.40
2023-04-21T07:52:11.040Z,8.30
2023-04-21T07:54:37.913Z,8.30
2023-04-21T07:57:04.762Z,8.20
2023-04-21T07:59:31.655Z,8.20
2023-04-21T08:01:58.593Z,8.20
2023-04-21T08:04:25.751Z,8.10
2023-04-21T08:06:53.210Z,8.20
2023-04-21T08:09:20.331Z,8.30
2023-04-21T08:11:47.402Z,8.30
2023-04-21T08:14:14.430Z,8.30
2023-04-21T08:16:42.317Z,8.20
2023-04-21T08:19:09.727Z,8.30
2023-04-21T08:21:36.862Z,8.40
2023-04-21T08:24:04.366Z,8.30
2023-04-21T08:26:31.361Z,8.40
2023-04-21T08:28:58.209Z,8.40
2023-04-21T08:31:25.144Z,8.50
2023-04-21T08:34:01.086Z,8.50
2023-04-21T08:36:30.337Z,8.50
2023-04-21T08:38:58.141Z,8.70
2023-04-21T08:41:25.874Z,8.70
2023-04-21T08:43:52.811Z,8.80
2023-04-21T08:46:20.032Z,8.70
2023-04-21T08:48:47.745Z,8.80
2023-04-21T08:51:21.760Z,9.00
2023-04-21T08:53:48.685Z,9.00
2023-04-21T08:56:15.548Z,9.00
2023-04-21T08:58:42.632Z,8.80
2023-04-21T09:01:09.600Z,8.80
2023-04-21T09:03:36.549Z,8.90
2023-04-21T09:06:09.639Z,9.00
2023-04-21T09:08:43.488Z,8.90
2023-04-21T09:11:14.459Z,9.00
2023-04-21T09:13:43.178Z,9.00
2023-04-21T09:16:20.173Z,9.00
2023-04-21T09:18:47.448Z,9.10
2023-04-21T09:21:16.147Z,9.10
2023-04-21T09:23:50.835Z,9.10
2023-04-21T09:26:20.289Z,9.10
2023-04-21T09:28:48.384Z,9.20
2023-04-21T09:31:17.101Z,9.20
2023-04-21T09:33:57.747Z,9.20
2023-04-21T09:36:31.815Z,9.20
2023-04-21T09:41:32.637Z,9.30
2023-04-21T09:44:04.686Z,9.30
2023-04-21T09:46:36.881Z,9.20
2023-04-21T09:49:04.856Z,9.40
2023-04-21T09:51:56.286Z,9.40
2023-04-21T09:54:29.572Z,9.60
2023-04-21T09:57:04.096Z,9.70
2023-04-21T09:59:37.357Z,9.80
2023-04-21T10:02:08.805Z,10.00
2023-04-21T10:04:38.360Z,10.10
2023-04-21T10:07:06.549Z,10.10
2023-04-21T10:09:46.568Z,10.00
2023-04-21T10:12:15.282Z,9.80
2023-04-21T10:14:42.354Z,9.80
2023-04-21T10:17:10.917Z,9.90
2023-04-21T10:19:47.566Z,10.00
2023-04-21T10:22:14.478Z,10.00
2023-04-21T10:24:43.176Z,9.80
2023-04-21T10:27:11.752Z,10.00
2023-04-21T10:29:54.778Z,9.90
2023-04-21T10:32:42.522Z,9.90
2023-04-21T10:35:11.021Z,10.00
2023-04-21T10:37:37.918Z,10.00
2023-04-21T10:40:11.189Z,10.20
2023-04-21T10:42:38.044Z,10.30
2023-04-21T10:45:10.091Z,10.30
2023-04-21T10:47:49.316Z,10.30
2023-04-21T10:50:17.795Z,10.50
2023-04-21T10:52:54.112Z,10.60
2023-04-21T10:55:22.412Z,10.80
2023-04-21T10:57:49.631Z,11.10
2023-04-21T11:00:19.132Z,11.30
2023-04-21T11:02:57.997Z,11.50
2023-04-21T11:05:41.780Z,11.60
2023-04-21T11:08:14.922Z,11.80
2023-04-21T11:10:46.131Z,11.90
2023-04-21T11:13:13.024Z,12.10
2023-04-21T11:15:40.545Z,12.20
2023-04-21T11:18:09.764Z,12.10
2023-04-21T11:20:41.497Z,11.60
2023-04-21T11:23:08.363Z,11.20
2023-04-21T11:25:35.184Z,11.20
2023-04-21T11:28:03.078Z,11.30
2023-04-21T11:30:34.238Z,11.30
2023-04-21T11:33:01.423Z,11.40
2023-04-21T11:35:28.387Z,11.30
2023-04-21T11:37:55.929Z,11.10
2023-04-21T11:40:22.838Z,11.20
2023-04-21T11:42:50.289Z,11.30
2023-04-21T11:45:22.510Z,11.30
2023-04-21T11:47:49.997Z,11.40
2023-04-21T11:50:32.191Z,11.40
2023-04-21T11:52:59.069Z,11.40
2023-04-21T11:55:26.092Z,11.30
2023-04-21T11:57:52.953Z,11.30
2023-04-21T12:00:20.563Z,11.40
2023-04-21T12:02:57.696Z,11.50
2023-04-21T12:05:24.867Z,11.70
2023-04-21T12:07:55.768Z,11.60
2023-04-21T12:10:22.705Z,11.50
2023-04-21T12:12:49.554Z,11.50
2023-04-21T12:15:22.848Z,11.60
2023-04-21T12:17:51.962Z,11.60
2023-04-21T12:20:28.363Z,11.70
2023-04-21T12:22:56.458Z,11.90
2023-04-21T12:25:24.653Z,11.80
2023-04-21T12:27:52.572Z,11.90
2023-04-21T12:30:20.526Z,12.00
2023-04-21T12:32:48.253Z,11.90
2023-04-21T12:35:15.551Z,12.00
2023-04-21T12:37:42.371Z,12.00
2023-04-21T12:40:09.688Z,12.10
2023-04-21T12:42:38.144Z,12.20
2023-04-21T12:45:06.563Z,12.30
2023-04-21T12:47:34.152Z,12.20
2023-04-21T12:50:01.322Z,12.20
2023-04-21T12:52:28.279Z,12.30
2023-04-21T12:54:55.305Z,12.40
2023-04-21T12:57:22.147Z,12.50
2023-04-21T12:59:49.095Z,12.80
2023-04-21T13:02:16.332Z,12.90
2023-04-21T13:04:43.353Z,13.00
2023-04-21T13:07:10.539Z,13.30
2023-04-21T13:09:37.437Z,13.60
2023-04-21T13:12:04.637Z,13.90
2023-04-21T13:14:31.818Z,13.90
2023-04-21T13:16:59.280Z,13.70
2023-04-21T13:19:26.329Z,13.70
2023-04-21T13:21:54.367Z,13.80
2023-04-21T13:24:21.832Z,13.90
2023-04-21T13:26:48.744Z,13.90
2023-04-21T13:29:16.069Z,14.20
2023-04-21T13:31:42.938Z,14.30
2023-04-21T13:34:09.902Z,14.20
2023-04-21T13:36:36.835Z,14.30
2023-04-21T13:39:05.581Z,14.40
2023-04-21T13:41:32.495Z,14.40
2023-04-21T13:43:59.371Z,14.70
2023-04-21T13:46:26.226Z,14.90
2023-04-21T13:48:53.182Z,15.00
2023-04-21T13:51:20.966Z,15.40
2023-04-21T13:53:48.641Z,15.40
2023-04-21T13:56:16.239Z,15.60
2023-04-21T13:58:43.475Z,15.80
2023-04-21T14:01:10.511Z,15.90
2023-04-21T14:03:37.481Z,15.70
2023-04-21T14:06:05.216Z,15.50
2023-04-21T14:08:32.197Z,15.60
2023-04-21T14:10:59.338Z,15.80
2023-04-21T14:13:36.071Z,15.90
2023-04-21T14:16:09.568Z,15.80
2023-04-21T14:18:38.394Z,15.60
2023-04-21T14:21:05.361Z,15.60
2023-04-21T14:23:32.306Z,15.60
2023-04-21T14:25:59.143Z,15.60
2023-04-21T14:28:25.994Z,15.60
2023-04-21T14:30:52.887Z,15.40
2023-04-21T14:33:19.721Z,15.60
2023-04-21T14:35:46.632Z,15.80
2023-04-21T14:38:13.463Z,16.10
2023-04-21T14:40:40.313Z,16.50
2023-04-21T14:43:07.150Z,16.40
2023-04-21T14:45:34.128Z,16.20
2023-04-21T14:48:01.032Z,16.10
2023-04-21T14:50:28.114Z,15.90
2023-04-21T14:52:54.905Z,16.20
2023-04-21T14:55:21.776Z,16.50
2023-04-21T14:57:48.623Z,16.30
2023-04-21T15:00:15.907Z,16.50
2023-04-21T15:02:43.000Z,16.90
2023-04-21T15:05:10.197Z,17.10
2023-04-21T15:07:37.404Z,17.50
2023-04-21T15:10:04.689Z,17.70
2023-04-21T15:12:33.004Z,17.70
2023-04-21T15:15:00.895Z,18.00
2023-04-21T15:17:27.862Z,18.20
2023-04-21T15:19:54.768Z,18.20
2023-04-21T15:22:21.593Z,18.40
2023-04-21T15:24:48.571Z,18.50
2023-04-21T15:27:15.467Z,18.60
2023-04-21T15:29:42.374Z,18.30
2023-04-21T15:32:09.913Z,17.30
2023-04-21T15:34:36.718Z,17.40
2023-04-21T15:37:03.575Z,17.70
2023-04-21T15:39:30.454Z,18.00
2023-04-21T15:41:59.232Z,17.80
2023-04-21T15:44:26.466Z,17.70
2023-04-21T15:46:53.349Z,17.80
2023-04-21T15:49:20.377Z,18.10
2023-04-21T15:51:47.383Z,18.40
2023-04-21T15:54:14.346Z,18.30
2023-04-21T15:56:41.148Z,18.30
2023-04-21T15:59:08.065Z,18.40
2023-04-21T16:01:35.062Z,18.70
2023-04-21T16:04:02.127Z,18.80
2023-04-21T16:06:30.895Z,17.70
2023-04-21T16:08:58.273Z,16.80
2023-04-21T16:11:26.214Z,16.50
2023-04-21T16:13:53.200Z,17.00
2023-04-21T16:16:20.302Z,17.70
2023-04-21T16:18:47.341Z,18.10
2023-04-21T16:21:14.322Z,18.10
2023-04-21T16:23:42.006Z,18.00
2023-04-21T16:26:09.264Z,18.10
2023-04-21T16:28:36.230Z,18.30
2023-04-21T16:31:03.515Z,17.80
2023-04-21T16:33:30.800Z,17.60
2023-04-21T16:35:57.870Z,16.70
2023-04-21T16:38:25.061Z,15.80
2023-04-21T16:40:51.995Z,15.70
2023-04-21T16:43:18.848Z,15.80
2023-04-21T16:45:45.745Z,16.20
2023-04-21T16:48:13.016Z,16.10
2023-04-21T16:50:41.853Z,16.50
2023-04-21T16:53:08.962Z,16.40
2023-04-21T16:55:35.913Z,16.60
2023-04-21T16:58:02.845Z,17.00
2023-04-21T17:00:30.510Z,17.30
2023-04-21T17:02:57.763Z,17.30
2023-04-21T17:05:24.813Z,16.90
2023-04-21T17:07:51.723Z,17.10
2023-04-21T17:10:18.763Z,17.30
2023-04-21T17:12:46.365Z,17.30
2023-04-21T17:15:13.421Z,17.40
2023-04-21T17:17:43.050Z,17.20
2023-04-21T17:20:11.777Z,16.90
2023-04-21T17:22:40.006Z,16.60
2023-04-21T17:25:07.371Z,16.50
2023-04-21T17:27:36.137Z,16.40
2023-04-21T17:30:07.237Z,16.20
2023-04-21T17:32:34.595Z,16.10
2023-04-21T17:35:01.936Z,15.80
2023-04-21T17:37:30.354Z,15.20
2023-04-21T17:39:59.224Z,15.10
2023-04-21T17:42:28.584Z,14.80
2023-04-21T17:44:55.523Z,14.40
2023-04-21T17:47:22.393Z,14.10
2023-04-21T17:49:49.224Z,13.90
2023-04-21T17:52:17.107Z,13.80
2023-04-21T17:54:44.285Z,13.50
2023-04-21T17:57:11.933Z,13.30
2023-04-21T17:59:39.564Z,13.20
2023-04-21T18:02:07.256Z,13.00
2023-04-21T18:04:34.751Z,12.90
2023-04-21T18:07:02.525Z,12.80
2023-04-21T18:09:29.690Z,12.60
2023-04-21T18:11:57.021Z,12.40
2023-04-21T18:14:24.588Z,12.30
2023-04-21T18:16:51.455Z,12.10
2023-04-21T18:19:18.560Z,11.90
2023-04-21T18:21:45.843Z,11.80
2023-04-21T18:24:12.707Z,11.60
2023-04-21T18:26:40.186Z,11.50
2023-04-21T18:29:07.148Z,11.40
2023-04-21T18:31:34.489Z,11.40
2023-04-21T18:34:01.495Z,11.30
2023-04-21T18:36:30.704Z,11.10
2023-04-21T18:38:59.298Z,11.00
2023-04-21T18:41:27.442Z,10.90
2023-04-21T18:43:54.751Z,10.80
2023-04-21T18:46:21.840Z,10.70
2023-04-21T18:48:48.720Z,10.60
2023-04-21T18:51:15.704Z,10.50
2023-04-21T18:53:43.293Z,10.40
2023-04-21T18:56:10.199Z,10.30
2023-04-21T18:58:37.229Z,10.20
2023-04-21T19:01:04.125Z,10.10
2023-04-21T19:03:31.377Z,10.00
2023-04-21T19:05:58.402Z,9.90
2023-04-21T19:08:40.853Z,9.80
2023-04-21T19:11:10.100Z,9.70
2023-04-21T19:13:37.178Z,9.70
2023-04-21T19:16:05.145Z,9.60
2023-04-21T19:18:32.236Z,9.60
2023-04-21T19:20:59.127Z,9.50
2023-04-21T19:23:26.032Z,9.50
2023-04-21T19:25:55.074Z,9.40
2023-04-21T19:28:21.963Z,9.30
2023-04-21T19:30:49.161Z,9.30
2023-04-21T19:33:16.378Z,9.20
2023-04-21T19:35:43.312Z,9.10
2023-04-21T19:38:10.403Z,9.10
2023-04-21T19:40:37.476Z,9.00
2023-04-21T19:43:05.526Z,9.00
2023-04-21T19:45:32.553Z,9.00
2023-04-21T19:47:59.487Z,8.90
2023-04-21T19:50:26.855Z,8.90
2023-04-21T19:52:53.718Z,8.80
2023-04-21T19:55:20.626Z,8.80
2023-04-21T19:57:47.414Z,8.70
2023-04-21T20:00:15.025Z,8.70
2023-04-21T20:02:42.390Z,8.60
2023-04-21T20:05:10.073Z,8.60
2023-04-21T20:07:37.840Z,8.50
2023-04-21T20:10:06.184Z,8.50
2023-04-21T20:12:33.716Z,8.50
2023-04-21T20:15:01.294Z,8.40
2023-04-21T20:17:29.074Z,8.40
2023-04-21T20:19:56.114Z,8.40
2023-04-21T20:22:23.461Z,8.30
2023-04-21T20:24:52.079Z,8.30
2023-04-21T20:27:19.037Z,8.20
2023-04-21T20:29:46.948Z,8.20
2023-04-21T20:32:13.982Z,8.10
2023-04-21T20:34:40.966Z,8.10
2023-04-21T20:37:07.879Z,8.00
2023-04-21T20:39:34.748Z,8.00
2023-04-21T20:42:12.739Z,7.90
2023-04-21T20:44:43.441Z,7.90
2023-04-21T20:47:11.426Z,7.80
2023-04-21T20:49:39.839Z,7.80
2023-04-21T20:52:06.977Z,7.70
2023-04-21T20:54:34.852Z,7.70
2023-04-21T20:57:02.411Z,7.60
2023-04-21T20:59:29.343Z,7.60
2023-04-21T21:01:56.306Z,7.50
2023-04-21T21:04:23.314Z,7.50
2023-04-21T21:06:50.448Z,7.50
2023-04-21T21:09:18.973Z,7.40
2023-04-21T21:11:46.202Z,7.40
2023-04-21T21:14:13.247Z,7.40
2023-04-21T21:16:40.506Z,7.30
2023-04-21T21:19:07.517Z,7.20
2023-04-21T21:21:34.424Z,7.10
2023-04-21T21:24:01.345Z,7.10
2023-04-21T21:26:29.197Z,7.00
2023-04-21T21:28:56.378Z,7.00
2023-04-21T21:31:23.629Z,7.00
2023-04-21T21:33:50.603Z,7.00
2023-04-21T21:36:17.527Z,6.90
2023-04-21T21:38:44.335Z,6.80
2023-04-21T21:41:12.282Z,6.80
2023-04-21T21:43:39.149Z,6.70
2023-04-21T21:46:06.394Z,6.70
2023-04-21T21:48:33.331Z,6.60
2023-04-21T21:51:00.244Z,6.50
2023-04-21T21:53:27.149Z,6.50
2023-04-21T21:55:54.170Z,6.40
2023-04-21T21:58:21.583Z,6.40
2023-04-21T22:00:52.070Z,6.30
2023-04-21T22:03:21.890Z,6.30
2023-04-21T22:05:49.006Z,6.20
2023-04-21T22:08:15.905Z,6.20
2023-04-21T22:10:43.610Z,6.10
2023-04-21T22:13:11.116Z,6.10
2023-04-21T22:15:38.974Z,6.10
2023-04-21T22:18:07.166Z,6.00
2023-04-21T22:20:34.268Z,6.00
2023-04-21T22:23:01.204Z,6.00
2023-04-21T22:25:28.130Z,6.00
2023-04-21T22:27:58.461Z,5.90
2023-04-21T22:30:25.821Z,5.90
2023-04-21T22:32:52.716Z,5.90
2023-04-21T22:35:19.668Z,5.90
2023-04-21T22:37:46.582Z,5.90
2023-04-21T22:40:13.499Z,5.80
2023-04-21T22:42:40.341Z,5.80
2023-04-21T22:45:07.775Z,5.80
2023-04-21T22:47:35.260Z,5.80
2023-04-21T22:50:02.364Z,5.70
2023-04-21T22:52:29.279Z,5.70
2023-04-21T22:54:56.228Z,5.70
2023-04-21T22:57:23.131Z,5.60
2023-04-21T22:59:49.994Z,5.60
2023-04-21T23:02:16.956Z,5.60
2023-04-21T23:04:43.863Z,5.60
2023-04-21T23:07:10.673Z,5.60
2023-04-21T23:09:37.804Z,5.50
2023-04-21T23:12:06.140Z,5.50
2023-04-21T23:14:33.139Z,5.50
2023-04-21T23:17:00.289Z,5.60
2023-04-21T23:19:27.160Z,5.60
2023-04-21T23:21:54.076Z,5.60
2023-04-21T23:24:20.962Z,5.60
2023-04-21T23:26:47.759Z,5.60
2023-04-21T23:29:14.753Z,5.60
2023-04-21T23:31:41.665Z,5.50
2023-04-21T23:34:08.562Z,5.50
2023-04-21T23:36:35.835Z,5.50
2023-04-21T23:39:02.702Z,5.50
2023-04-21T23:41:29.629Z,5.50
2023-04-21T23:43:56.465Z,5.50
2023-04-21T23:46:23.417Z,5.40
2023-04-21T23:48:50.268Z,5.40
2023-04-21T23:51:17.155Z,5.40
2023-04-21T23:53:44.012Z,5.40
2023-04-21T23:56:10.891Z,5.40
2023-04-21T23:58:37.839Z,5.30
